Have a Safe July 4th! 

Flight Track Log - Related Links

Times and Time Zones

All times are in EDT time to prevent confusion due to time zone crossing. See the ASQ4280 flight status page for this flight to view local times or setup timezone preferences in your user account.

Time Position Orientation Groundspeed Altitude Reporting Facility
EDT Latitude Longitude Course Direction KTS MPH feet Rate Location/Type
Wed 12:13:07 PM 36.1333 -86.6833 338° Northwest 142 163 1,100  Level Nashville TRACON
Wed 12:13:49 PM 36.1667 -86.7000 338° Northwest 170 196 2,700 1,706 Climbing Nashville TRACON
Wed 12:14:49 PM 36.2167 -86.6500 39° Northeast 244 281 4,000 1,600 Climbing Nashville TRACON
Wed 12:15:49 PM 36.3000 -86.6167 18° North 309 356 5,900 2,063 Climbing Nashville TRACON
Wed 12:16:57 PM 36.3761 -86.5758 23° Northeast 297 342 8,400 2,250 Climbing Memphis Center
Wed 12:17:57 PM 36.4561 -86.5383 21° North 302 348 10,700 1,750 Climbing Memphis Center
Wed 12:18:57 PM 36.5464 -86.4928 22° Northeast 322 371 11,900 1,050 Climbing Memphis Center
Wed 12:19:57 PM 36.6428 -86.4417 23° Northeast 354 407 12,800 1,250 Climbing Memphis Center
Wed 12:20:57 PM 36.7456 -86.3900 22° Northeast 384 442 14,400 1,500 Climbing Memphis Center
Wed 12:21:57 PM 36.8500 -86.3383 22° Northeast 389 448 15,800 1,171 Climbing Memphis Center
Wed 12:24:22 PM 37.0986 -86.2131 22° Northeast 416 479 18,400 1,107 Climbing Indianapolis Center
Wed 12:25:23 PM 37.2108 -86.1572 22° Northeast 426 490 19,600 1,220 Climbing Indianapolis Center
Wed 12:26:25 PM 37.3231 -86.0883 26° Northeast 441 507 20,900 1,210 Climbing Indianapolis Center
Wed 12:27:27 PM 37.4372 -86.0136 27° Northeast 456 525 22,100 1,171 Climbing Indianapolis Center
Wed 12:28:28 PM 37.5531 -85.9392 27° Northeast 463 533 23,300 1,171 Climbing Indianapolis Center
Wed 12:29:30 PM 37.6658 -85.8658 27° Northeast 470 541 24,500 1,220 Climbing Indianapolis Center
Wed 12:30:31 PM 37.8058 -85.7739 27° Northeast 472 543 25,800 1,024 Climbing Indianapolis Center
Wed 12:31:33 PM 37.9253 -85.6956 27° Northeast 481 554 26,600 780 Climbing Indianapolis Center
Wed 12:32:34 PM 38.0467 -85.6156 27° Northeast 488 562 27,400 780 Climbing Indianapolis Center
Wed 12:33:36 PM 38.1647 -85.5208 32° Northeast 498 573 28,200 780 Climbing Indianapolis Center
Wed 12:34:37 PM 38.2758 -85.4144 37° Northeast 499 574 29,000 390 Climbing Indianapolis Center
Wed 12:35:39 PM 38.3917 -85.3042 37° Northeast 513 590 29,000  Level Indianapolis Center
Wed 12:36:40 PM 38.5292 -85.1725 37° Northeast 535 616 29,000  Level Indianapolis Center
Wed 12:37:42 PM 38.6406 -85.0650 37° Northeast 542 624 29,000  Level Indianapolis Center
Wed 12:38:44 PM 38.7617 -84.9486 37° Northeast 542 624 29,000  Level Indianapolis Center
Wed 12:39:45 PM 38.8822 -84.8322 37° Northeast 541 623 29,000  Level Indianapolis Center
Wed 12:40:47 PM 39.0086 -84.7092 37° Northeast 545 627 29,000  Level Indianapolis Center
Wed 12:41:48 PM 39.1303 -84.5833 39° Northeast 554 638 29,000  Level Indianapolis Center
Wed 12:42:50 PM 39.2522 -84.4553 39° Northeast 559 643 29,000  Level Indianapolis Center
Wed 12:43:51 PM 39.3947 -84.3069 39° Northeast 557 641 29,000  Level Indianapolis Center
Wed 12:44:53 PM 39.5133 -84.1814 39° Northeast 548 631 29,000  Level Indianapolis Center
Wed 12:45:55 PM 39.6325 -84.0556 39° Northeast 547 629 29,000  Level Indianapolis Center
Wed 12:46:56 PM 39.7506 -83.9292 39° Northeast 544 626 29,000  Level Indianapolis Center
Wed 12:47:58 PM 39.8700 -83.8019 39° Northeast 543 625 29,000 -435 Level Indianapolis Center
Wed 12:49:00 PM 39.9894 -83.6733 40° Northeast 543 625 28,100 -1,024 Descending Indianapolis Center
Wed 12:50:01 PM 40.1094 -83.5447 39° Northeast 543 625 26,900 -1,171 Descending Indianapolis Center
Wed 12:51:03 PM 40.2264 -83.4156 40° Northeast 541 623 25,700 -1,355 Descending Indianapolis Center
Wed 12:52:05 PM 40.3336 -83.2792 44° Northeast 530 610 24,100 -1,854 Descending Indianapolis Center
Wed 12:53:06 PM 40.4397 -83.1439 44° Northeast 526 605 21,900 -2,439 Descending Indianapolis Center
Wed 12:54:08 PM 40.5414 -83.0139 44° Northeast 494 568 19,100 -1,887 Descending Indianapolis Center
Wed 12:55:10 PM 40.6364 -82.8906 45° Northeast 477 549 18,000 -1,740 Descending Indianapolis Center
Wed 12:55:48 PM 40.6956 -82.8150 44° Northeast 463 533 16,200 -2,912 Descending Cleveland Center
Wed 12:56:18 PM 40.7406 -82.7589 43° Northeast 453 521 14,700 -2,512 Descending Cleveland Center
Wed 12:57:14 PM 40.8175 -82.6544 46° Northeast 444 511 12,600 -2,224 Descending Cleveland Center
Wed 12:58:14 PM 40.9008 -82.5472 44° Northeast 427 491 10,400 -1,300 Descending Cleveland Center
Wed 12:59:14 PM 40.9839 -82.4453 43° Northeast 405 466 10,000 -950 Descending Cleveland Center
Wed 01:00:14 PM 41.0539 -82.3564 44° Northeast 360 414 8,500 -1,500 Descending Cleveland Center
Wed 01:01:14 PM 41.1200 -82.2672 45° Northeast 338 389 7,000 -900 Descending Cleveland Center
Wed 01:02:14 PM 41.1794 -82.1942 43° Northeast 304 350 6,700 -700 Descending Cleveland Center
Wed 01:03:14 PM 41.2344 -82.1267 43° Northeast 260 299 5,600 -1,186 Descending Cleveland Center
Wed 01:03:40 PM 41.2536 -82.1022 44° Northeast 230 265 5,000 -1,100 Descending Cleveland Center
Wed 01:04:14 PM 41.2769 -82.0667 49° Northeast 227 261 4,500 -787 Descending Cleveland Center
Wed 01:04:41 PM 41.2919 -82.0422 51° Northeast 214 246 4,200 -1,000 Descending Cleveland Center
Wed 01:05:14 PM 41.3153 -82.0069 49° Northeast 210 242 3,500 -1,279 Descending Cleveland Center
Wed 01:05:42 PM 41.3322 -81.9822 48° Northeast 211 243 2,900 -955 Descending Cleveland Center
Wed 01:06:42 PM 41.3600 -81.9386 50° Northeast 124 143 2,100 -783 Descending Cleveland Center
Wed 01:07:37 PM 41.3811 -81.9031 52° Northeast 134 154 1,400 -764 Descending Cleveland Center
Wed 01:09:00 PM 41.4000 -81.8500 48° Northeast  Level FlightAware Approximate
Wed 01:16:00 PM 41.4094 -81.8547 48° Northeast  Level Estimated

Login

Don't have an account? Register now (free) for customized features, flight alerts, and more!